sensor_id;sensor_type;location;lat;lon;timestamp;P1;durP1;ratioP1;P2;durP2;ratioP2
12112;SDS011;6120;52.250;8.478;2022-12-07T00:01:22;45.53;;;21.88;;
12112;SDS011;6120;52.250;8.478;2022-12-07T00:03:51;44.90;;;22.08;;
12112;SDS011;6120;52.250;8.478;2022-12-07T00:06:19;41.10;;;22.20;;
12112;SDS011;6120;52.250;8.478;2022-12-07T00:08:46;41.45;;;20.92;;
12112;SDS011;6120;52.250;8.478;2022-12-07T00:11:15;41.65;;;20.15;;
12112;SDS011;6120;52.250;8.478;2022-12-07T00:13:43;41.33;;;21.83;;
12112;SDS011;6120;52.250;8.478;2022-12-07T00:16:14;45.55;;;22.30;;
12112;SDS011;6120;52.250;8.478;2022-12-07T00:18:42;42.88;;;20.67;;
12112;SDS011;6120;52.250;8.478;2022-12-07T00:23:37;37.73;;;20.83;;
12112;SDS011;6120;52.250;8.478;2022-12-07T00:26:23;36.28;;;20.23;;
12112;SDS011;6120;52.250;8.478;2022-12-07T00:28:55;38.05;;;18.92;;
12112;SDS011;6120;52.250;8.478;2022-12-07T00:31:24;40.75;;;21.52;;
12112;SDS011;6120;52.250;8.478;2022-12-07T00:33:53;42.00;;;21.58;;
12112;SDS011;6120;52.250;8.478;2022-12-07T00:36:21;34.85;;;18.95;;
12112;SDS011;6120;52.250;8.478;2022-12-07T00:38:53;34.42;;;19.45;;
12112;SDS011;6120;52.250;8.478;2022-12-07T00:41:21;37.38;;;17.50;;
12112;SDS011;6120;52.250;8.478;2022-12-07T00:43:49;31.88;;;17.45;;
12112;SDS011;6120;52.250;8.478;2022-12-07T00:46:16;29.45;;;16.65;;
12112;SDS011;6120;52.250;8.478;2022-12-07T00:48:44;32.03;;;17.33;;
12112;SDS011;6120;52.250;8.478;2022-12-07T00:51:12;31.95;;;16.67;;
12112;SDS011;6120;52.250;8.478;2022-12-07T00:53:39;35.47;;;18.45;;
12112;SDS011;6120;52.250;8.478;2022-12-07T00:56:17;29.77;;;17.13;;
12112;SDS011;6120;52.250;8.478;2022-12-07T00:58:52;32.53;;;16.88;;
12112;SDS011;6120;52.250;8.478;2022-12-07T01:01:20;26.48;;;15.02;;
12112;SDS011;6120;52.250;8.478;2022-12-07T01:03:46;30.75;;;15.98;;
12112;SDS011;6120;52.250;8.478;2022-12-07T01:06:17;31.85;;;15.35;;
12112;SDS011;6120;52.250;8.478;2022-12-07T01:08:44;25.80;;;13.82;;
12112;SDS011;6120;52.250;8.478;2022-12-07T01:11:13;28.48;;;14.65;;
12112;SDS011;6120;52.250;8.478;2022-12-07T01:13:41;27.20;;;14.93;;
12112;SDS011;6120;52.250;8.478;2022-12-07T01:16:08;27.80;;;15.27;;
12112;SDS011;6120;52.250;8.478;2022-12-07T01:18:38;29.08;;;15.02;;
12112;SDS011;6120;52.250;8.478;2022-12-07T01:21:06;29.27;;;14.80;;
12112;SDS011;6120;52.250;8.478;2022-12-07T01:23:35;35.20;;;16.40;;
12112;SDS011;6120;52.250;8.478;2022-12-07T01:26:03;28.42;;;14.95;;
12112;SDS011;6120;52.250;8.478;2022-12-07T01:28:34;27.40;;;13.88;;
12112;SDS011;6120;52.250;8.478;2022-12-07T01:31:02;29.42;;;14.25;;
12112;SDS011;6120;52.250;8.478;2022-12-07T01:33:31;30.17;;;14.05;;
12112;SDS011;6120;52.250;8.478;2022-12-07T01:36:00;27.10;;;13.93;;
12112;SDS011;6120;52.250;8.478;2022-12-07T01:38:31;28.55;;;13.73;;
12112;SDS011;6120;52.250;8.478;2022-12-07T01:40:58;27.27;;;14.05;;
12112;SDS011;6120;52.250;8.478;2022-12-07T01:43:27;28.90;;;13.75;;
12112;SDS011;6120;52.250;8.478;2022-12-07T01:45:55;25.23;;;12.60;;
12112;SDS011;6120;52.250;8.478;2022-12-07T01:48:32;28.38;;;13.82;;
12112;SDS011;6120;52.250;8.478;2022-12-07T01:51:04;26.00;;;12.80;;
12112;SDS011;6120;52.250;8.478;2022-12-07T01:53:32;25.95;;;12.63;;
12112;SDS011;6120;52.250;8.478;2022-12-07T01:56:01;22.33;;;11.40;;
12112;SDS011;6120;52.250;8.478;2022-12-07T01:58:28;20.52;;;10.93;;
12112;SDS011;6120;52.250;8.478;2022-12-07T02:00:55;22.23;;;11.70;;
12112;SDS011;6120;52.250;8.478;2022-12-07T02:03:27;22.20;;;10.27;;
12112;SDS011;6120;52.250;8.478;2022-12-07T02:05:58;21.88;;;11.27;;
12112;SDS011;6120;52.250;8.478;2022-12-07T02:08:25;19.98;;;11.25;;
12112;SDS011;6120;52.250;8.478;2022-12-07T02:10:52;21.13;;;11.50;;
12112;SDS011;6120;52.250;8.478;2022-12-07T02:13:20;25.25;;;12.23;;
12112;SDS011;6120;52.250;8.478;2022-12-07T02:16:04;23.75;;;12.48;;
12112;SDS011;6120;52.250;8.478;2022-12-07T02:21:11;22.40;;;10.98;;
12112;SDS011;6120;52.250;8.478;2022-12-07T02:23:47;25.52;;;11.73;;
12112;SDS011;6120;52.250;8.478;2022-12-07T02:29:43;22.77;;;11.82;;
12112;SDS011;6120;52.250;8.478;2022-12-07T02:32:18;26.63;;;13.05;;
12112;SDS011;6120;52.250;8.478;2022-12-07T02:37:21;30.25;;;13.65;;
12112;SDS011;6120;52.250;8.478;2022-12-07T02:39:55;25.75;;;13.20;;
12112;SDS011;6120;52.250;8.478;2022-12-07T02:42:37;25.55;;;12.18;;
12112;SDS011;6120;52.250;8.478;2022-12-07T02:45:20;25.88;;;12.00;;
12112;SDS011;6120;52.250;8.478;2022-12-07T02:47:48;32.35;;;12.10;;
12112;SDS011;6120;52.250;8.478;2022-12-07T02:50:19;22.77;;;10.98;;
12112;SDS011;6120;52.250;8.478;2022-12-07T02:52:47;24.85;;;12.05;;
12112;SDS011;6120;52.250;8.478;2022-12-07T02:55:14;23.25;;;10.10;;
12112;SDS011;6120;52.250;8.478;2022-12-07T03:00:28;21.08;;;9.68;;
12112;SDS011;6120;52.250;8.478;2022-12-07T03:03:00;17.67;;;9.30;;
12112;SDS011;6120;52.250;8.478;2022-12-07T03:11:16;21.45;;;9.50;;
12112;SDS011;6120;52.250;8.478;2022-12-07T03:16:24;18.50;;;9.82;;
12112;SDS011;6120;52.250;8.478;2022-12-07T03:18:55;20.55;;;10.05;;
12112;SDS011;6120;52.250;8.478;2022-12-07T03:21:24;24.10;;;9.60;;
12112;SDS011;6120;52.250;8.478;2022-12-07T03:23:54;20.33;;;9.98;;
12112;SDS011;6120;52.250;8.478;2022-12-07T03:26:23;19.33;;;9.68;;
12112;SDS011;6120;52.250;8.478;2022-12-07T03:28:54;21.08;;;10.32;;
12112;SDS011;6120;52.250;8.478;2022-12-07T03:31:22;21.00;;;9.80;;
12112;SDS011;6120;52.250;8.478;2022-12-07T03:33:59;20.90;;;9.57;;
12112;SDS011;6120;52.250;8.478;2022-12-07T03:42:17;17.50;;;9.23;;
12112;SDS011;6120;52.250;8.478;2022-12-07T03:44:43;19.63;;;9.68;;
12112;SDS011;6120;52.250;8.478;2022-12-07T03:47:15;20.77;;;9.15;;
12112;SDS011;6120;52.250;8.478;2022-12-07T03:49:50;19.77;;;9.65;;
12112;SDS011;6120;52.250;8.478;2022-12-07T03:57:51;24.27;;;11.38;;
12112;SDS011;6120;52.250;8.478;2022-12-07T04:00:20;20.42;;;10.80;;
12112;SDS011;6120;52.250;8.478;2022-12-07T04:02:46;21.60;;;10.38;;
12112;SDS011;6120;52.250;8.478;2022-12-07T04:05:13;21.52;;;10.27;;
12112;SDS011;6120;52.250;8.478;2022-12-07T04:07:40;18.15;;;9.65;;
12112;SDS011;6120;52.250;8.478;2022-12-07T04:10:07;19.73;;;9.93;;
12112;SDS011;6120;52.250;8.478;2022-12-07T04:12:34;18.90;;;8.20;;
12112;SDS011;6120;52.250;8.478;2022-12-07T04:15:00;16.10;;;8.63;;
12112;SDS011;6120;52.250;8.478;2022-12-07T04:17:27;15.55;;;8.23;;
12112;SDS011;6120;52.250;8.478;2022-12-07T04:19:53;17.88;;;7.60;;
12112;SDS011;6120;52.250;8.478;2022-12-07T04:22:20;16.65;;;7.97;;
12112;SDS011;6120;52.250;8.478;2022-12-07T04:24:47;16.15;;;7.72;;
12112;SDS011;6120;52.250;8.478;2022-12-07T04:27:14;16.98;;;7.40;;
12112;SDS011;6120;52.250;8.478;2022-12-07T04:29:40;14.82;;;6.03;;
12112;SDS011;6120;52.250;8.478;2022-12-07T04:32:07;12.25;;;6.47;;
12112;SDS011;6120;52.250;8.478;2022-12-07T04:34:34;14.90;;;6.75;;
12112;SDS011;6120;52.250;8.478;2022-12-07T04:37:00;14.50;;;6.28;;
12112;SDS011;6120;52.250;8.478;2022-12-07T04:39:30;12.73;;;6.35;;
12112;SDS011;6120;52.250;8.478;2022-12-07T04:41:58;13.07;;;6.72;;
12112;SDS011;6120;52.250;8.478;2022-12-07T04:44:26;13.15;;;5.80;;
12112;SDS011;6120;52.250;8.478;2022-12-07T04:46:53;15.85;;;6.43;;
12112;SDS011;6120;52.250;8.478;2022-12-07T04:49:21;13.90;;;6.00;;
12112;SDS011;6120;52.250;8.478;2022-12-07T04:51:47;14.73;;;6.45;;
12112;SDS011;6120;52.250;8.478;2022-12-07T04:54:14;12.50;;;6.57;;
12112;SDS011;6120;52.250;8.478;2022-12-07T04:56:42;12.37;;;6.37;;
12112;SDS011;6120;52.250;8.478;2022-12-07T04:59:09;14.05;;;6.95;;
12112;SDS011;6120;52.250;8.478;2022-12-07T05:01:36;10.75;;;6.82;;
12112;SDS011;6120;52.250;8.478;2022-12-07T05:04:03;13.75;;;6.75;;
12112;SDS011;6120;52.250;8.478;2022-12-07T05:06:30;13.57;;;6.95;;
12112;SDS011;6120;52.250;8.478;2022-12-07T05:08:56;16.98;;;7.65;;
12112;SDS011;6120;52.250;8.478;2022-12-07T05:11:23;11.75;;;6.47;;
12112;SDS011;6120;52.250;8.478;2022-12-07T05:14:06;15.57;;;6.20;;
12112;SDS011;6120;52.250;8.478;2022-12-07T05:16:35;14.15;;;7.72;;
12112;SDS011;6120;52.250;8.478;2022-12-07T05:19:02;15.85;;;6.80;;
12112;SDS011;6120;52.250;8.478;2022-12-07T05:21:30;11.35;;;5.95;;
12112;SDS011;6120;52.250;8.478;2022-12-07T05:23:56;9.70;;;5.43;;
12112;SDS011;6120;52.250;8.478;2022-12-07T05:26:23;12.38;;;5.72;;
12112;SDS011;6120;52.250;8.478;2022-12-07T05:28:50;12.55;;;5.53;;
12112;SDS011;6120;52.250;8.478;2022-12-07T05:31:18;8.82;;;4.80;;
12112;SDS011;6120;52.250;8.478;2022-12-07T05:33:45;12.15;;;4.78;;
12112;SDS011;6120;52.250;8.478;2022-12-07T05:36:11;12.95;;;5.13;;
12112;SDS011;6120;52.250;8.478;2022-12-07T05:38:38;12.95;;;4.40;;
12112;SDS011;6120;52.250;8.478;2022-12-07T05:41:05;9.45;;;3.50;;
12112;SDS011;6120;52.250;8.478;2022-12-07T05:43:33;8.38;;;3.78;;
12112;SDS011;6120;52.250;8.478;2022-12-07T05:46:00;9.43;;;2.97;;
12112;SDS011;6120;52.250;8.478;2022-12-07T05:48:26;15.63;;;3.47;;
12112;SDS011;6120;52.250;8.478;2022-12-07T05:50:53;18.30;;;3.92;;
12112;SDS011;6120;52.250;8.478;2022-12-07T05:53:20;13.48;;;3.22;;
12112;SDS011;6120;52.250;8.478;2022-12-07T05:58:15;10.75;;;3.67;;
12112;SDS011;6120;52.250;8.478;2022-12-07T06:01:00;10.98;;;3.65;;
12112;SDS011;6120;52.250;8.478;2022-12-07T06:03:26;6.35;;;2.70;;
12112;SDS011;6120;52.250;8.478;2022-12-07T06:05:53;12.18;;;3.33;;
12112;SDS011;6120;52.250;8.478;2022-12-07T06:08:20;12.02;;;3.97;;
12112;SDS011;6120;52.250;8.478;2022-12-07T06:10:47;7.80;;;3.92;;
12112;SDS011;6120;52.250;8.478;2022-12-07T06:13:34;9.65;;;4.22;;
12112;SDS011;6120;52.250;8.478;2022-12-07T06:16:00;14.52;;;4.88;;
12112;SDS011;6120;52.250;8.478;2022-12-07T06:18:27;8.98;;;4.28;;
12112;SDS011;6120;52.250;8.478;2022-12-07T06:20:53;11.35;;;4.63;;
12112;SDS011;6120;52.250;8.478;2022-12-07T06:23:20;11.63;;;4.60;;
12112;SDS011;6120;52.250;8.478;2022-12-07T06:25:47;12.60;;;4.57;;
12112;SDS011;6120;52.250;8.478;2022-12-07T06:28:13;9.02;;;4.40;;
12112;SDS011;6120;52.250;8.478;2022-12-07T06:30:40;14.98;;;4.75;;
12112;SDS011;6120;52.250;8.478;2022-12-07T06:33:06;13.70;;;4.30;;
12112;SDS011;6120;52.250;8.478;2022-12-07T06:35:33;7.82;;;4.63;;
12112;SDS011;6120;52.250;8.478;2022-12-07T06:38:00;11.68;;;3.95;;
12112;SDS011;6120;52.250;8.478;2022-12-07T06:40:26;10.43;;;4.15;;
12112;SDS011;6120;52.250;8.478;2022-12-07T06:42:53;9.52;;;4.55;;
12112;SDS011;6120;52.250;8.478;2022-12-07T06:45:20;10.45;;;3.65;;
12112;SDS011;6120;52.250;8.478;2022-12-07T06:47:46;7.95;;;3.88;;
12112;SDS011;6120;52.250;8.478;2022-12-07T06:50:13;10.98;;;4.63;;
12112;SDS011;6120;52.250;8.478;2022-12-07T06:52:40;9.18;;;4.60;;
12112;SDS011;6120;52.250;8.478;2022-12-07T06:55:06;12.52;;;4.45;;
12112;SDS011;6120;52.250;8.478;2022-12-07T06:57:33;12.38;;;4.03;;
12112;SDS011;6120;52.250;8.478;2022-12-07T07:00:00;10.50;;;4.20;;
12112;SDS011;6120;52.250;8.478;2022-12-07T07:02:27;8.85;;;4.50;;
12112;SDS011;6120;52.250;8.478;2022-12-07T07:04:53;13.38;;;4.80;;
12112;SDS011;6120;52.250;8.478;2022-12-07T07:07:20;7.65;;;4.15;;
12112;SDS011;6120;52.250;8.478;2022-12-07T07:09:47;9.73;;;4.20;;
12112;SDS011;6120;52.250;8.478;2022-12-07T07:12:13;12.55;;;3.65;;
12112;SDS011;6120;52.250;8.478;2022-12-07T07:14:40;6.45;;;3.42;;
12112;SDS011;6120;52.250;8.478;2022-12-07T07:17:06;7.32;;;3.22;;
12112;SDS011;6120;52.250;8.478;2022-12-07T07:19:33;12.63;;;3.45;;
12112;SDS011;6120;52.250;8.478;2022-12-07T07:22:00;12.48;;;3.55;;
12112;SDS011;6120;52.250;8.478;2022-12-07T07:24:26;9.75;;;2.95;;
12112;SDS011;6120;52.250;8.478;2022-12-07T07:26:53;9.77;;;3.70;;
12112;SDS011;6120;52.250;8.478;2022-12-07T07:29:19;6.43;;;2.92;;
12112;SDS011;6120;52.250;8.478;2022-12-07T07:31:46;11.32;;;3.00;;
12112;SDS011;6120;52.250;8.478;2022-12-07T07:34:12;6.68;;;3.33;;
12112;SDS011;6120;52.250;8.478;2022-12-07T07:36:39;7.20;;;2.67;;
12112;SDS011;6120;52.250;8.478;2022-12-07T07:39:06;9.63;;;3.15;;
12112;SDS011;6120;52.250;8.478;2022-12-07T07:41:32;6.00;;;2.20;;
12112;SDS011;6120;52.250;8.478;2022-12-07T07:43:59;5.80;;;3.00;;
12112;SDS011;6120;52.250;8.478;2022-12-07T07:46:26;11.85;;;3.58;;
12112;SDS011;6120;52.250;8.478;2022-12-07T07:48:52;6.55;;;2.90;;
12112;SDS011;6120;52.250;8.478;2022-12-07T07:51:19;10.43;;;3.05;;
12112;SDS011;6120;52.250;8.478;2022-12-07T07:53:45;10.90;;;3.38;;
12112;SDS011;6120;52.250;8.478;2022-12-07T07:56:12;10.23;;;3.50;;
12112;SDS011;6120;52.250;8.478;2022-12-07T07:58:39;11.70;;;3.58;;
12112;SDS011;6120;52.250;8.478;2022-12-07T08:01:06;13.20;;;4.00;;
12112;SDS011;6120;52.250;8.478;2022-12-07T08:03:33;8.32;;;4.45;;
12112;SDS011;6120;52.250;8.478;2022-12-07T08:06:03;13.32;;;4.20;;
12112;SDS011;6120;52.250;8.478;2022-12-07T08:08:31;18.83;;;4.20;;
12112;SDS011;6120;52.250;8.478;2022-12-07T08:10:58;12.10;;;4.30;;
12112;SDS011;6120;52.250;8.478;2022-12-07T08:13:27;7.70;;;4.03;;
12112;SDS011;6120;52.250;8.478;2022-12-07T08:15:56;8.18;;;4.55;;
12112;SDS011;6120;52.250;8.478;2022-12-07T08:18:23;8.10;;;4.80;;
12112;SDS011;6120;52.250;8.478;2022-12-07T08:20:50;6.30;;;3.85;;
12112;SDS011;6120;52.250;8.478;2022-12-07T08:23:16;13.68;;;4.55;;
12112;SDS011;6120;52.250;8.478;2022-12-07T08:25:43;11.13;;;4.40;;
12112;SDS011;6120;52.250;8.478;2022-12-07T08:28:10;11.85;;;4.30;;
12112;SDS011;6120;52.250;8.478;2022-12-07T08:30:37;9.15;;;4.13;;
12112;SDS011;6120;52.250;8.478;2022-12-07T08:33:04;11.65;;;4.13;;
12112;SDS011;6120;52.250;8.478;2022-12-07T08:35:32;12.13;;;4.05;;
12112;SDS011;6120;52.250;8.478;2022-12-07T08:37:59;14.88;;;3.72;;
12112;SDS011;6120;52.250;8.478;2022-12-07T08:40:28;8.88;;;3.60;;
12112;SDS011;6120;52.250;8.478;2022-12-07T08:42:55;10.30;;;3.33;;
12112;SDS011;6120;52.250;8.478;2022-12-07T08:45:21;9.15;;;3.20;;
12112;SDS011;6120;52.250;8.478;2022-12-07T08:47:57;12.68;;;3.53;;
12112;SDS011;6120;52.250;8.478;2022-12-07T08:50:28;9.05;;;3.13;;
12112;SDS011;6120;52.250;8.478;2022-12-07T08:52:56;11.40;;;3.10;;
12112;SDS011;6120;52.250;8.478;2022-12-07T08:57:50;8.57;;;3.75;;
12112;SDS011;6120;52.250;8.478;2022-12-07T09:00:17;17.17;;;5.00;;
12112;SDS011;6120;52.250;8.478;2022-12-07T09:02:44;10.32;;;4.63;;
12112;SDS011;6120;52.250;8.478;2022-12-07T09:05:12;19.73;;;5.30;;
12112;SDS011;6120;52.250;8.478;2022-12-07T09:07:43;14.18;;;5.93;;
12112;SDS011;6120;52.250;8.478;2022-12-07T09:10:10;21.95;;;5.18;;
12112;SDS011;6120;52.250;8.478;2022-12-07T09:12:37;9.80;;;5.40;;
12112;SDS011;6120;52.250;8.478;2022-12-07T09:15:04;14.45;;;5.53;;
12112;SDS011;6120;52.250;8.478;2022-12-07T09:17:34;17.63;;;5.32;;
12112;SDS011;6120;52.250;8.478;2022-12-07T09:20:02;10.70;;;5.00;;
12112;SDS011;6120;52.250;8.478;2022-12-07T09:22:31;14.80;;;4.65;;
12112;SDS011;6120;52.250;8.478;2022-12-07T09:24:58;13.25;;;4.53;;
12112;SDS011;6120;52.250;8.478;2022-12-07T09:27:25;9.48;;;3.72;;
12112;SDS011;6120;52.250;8.478;2022-12-07T09:29:52;7.10;;;3.75;;
12112;SDS011;6120;52.250;8.478;2022-12-07T09:32:19;6.35;;;3.65;;
12112;SDS011;6120;52.250;8.478;2022-12-07T09:34:46;8.32;;;3.40;;
12112;SDS011;6120;52.250;8.478;2022-12-07T09:37:12;7.45;;;3.13;;
12112;SDS011;6120;52.250;8.478;2022-12-07T09:39:39;10.80;;;3.72;;
12112;SDS011;6120;52.250;8.478;2022-12-07T09:42:36;13.43;;;3.30;;
12112;SDS011;6120;52.250;8.478;2022-12-07T09:45:07;8.60;;;4.55;;
12112;SDS011;6120;52.250;8.478;2022-12-07T09:47:39;9.10;;;4.80;;
12112;SDS011;6120;52.250;8.478;2022-12-07T09:50:13;11.98;;;5.10;;
12112;SDS011;6120;52.250;8.478;2022-12-07T09:52:43;13.07;;;4.78;;
12112;SDS011;6120;52.250;8.478;2022-12-07T09:55:12;8.75;;;4.95;;
12112;SDS011;6120;52.250;8.478;2022-12-07T09:57:40;12.15;;;5.80;;
12112;SDS011;6120;52.250;8.478;2022-12-07T10:00:15;12.90;;;3.90;;
12112;SDS011;6120;52.250;8.478;2022-12-07T10:02:46;12.52;;;3.30;;
12112;SDS011;6120;52.250;8.478;2022-12-07T10:05:38;5.72;;;2.80;;
12112;SDS011;6120;52.250;8.478;2022-12-07T10:08:12;7.28;;;2.15;;
12112;SDS011;6120;52.250;8.478;2022-12-07T10:10:40;7.70;;;2.40;;
12112;SDS011;6120;52.250;8.478;2022-12-07T10:13:08;8.77;;;2.80;;
12112;SDS011;6120;52.250;8.478;2022-12-07T10:15:57;9.80;;;2.42;;
12112;SDS011;6120;52.250;8.478;2022-12-07T10:18:33;7.18;;;2.38;;
12112;SDS011;6120;52.250;8.478;2022-12-07T10:21:17;10.93;;;2.55;;
12112;SDS011;6120;52.250;8.478;2022-12-07T10:23:59;13.48;;;4.60;;
12112;SDS011;6120;52.250;8.478;2022-12-07T10:26:31;10.27;;;3.03;;
12112;SDS011;6120;52.250;8.478;2022-12-07T10:29:15;12.15;;;2.67;;
12112;SDS011;6120;52.250;8.478;2022-12-07T10:31:42;6.72;;;2.30;;
12112;SDS011;6120;52.250;8.478;2022-12-07T10:36:51;7.45;;;2.55;;
12112;SDS011;6120;52.250;8.478;2022-12-07T10:39:20;7.53;;;2.78;;
12112;SDS011;6120;52.250;8.478;2022-12-07T10:41:55;9.98;;;3.38;;
12112;SDS011;6120;52.250;8.478;2022-12-07T10:44:29;8.00;;;2.75;;
12112;SDS011;6120;52.250;8.478;2022-12-07T11:01:41;10.23;;;2.05;;
12112;SDS011;6120;52.250;8.478;2022-12-07T11:03:41;7.45;;;2.20;;
12112;SDS011;6120;52.250;8.478;2022-12-07T11:06:13;10.20;;;2.50;;
12112;SDS011;6120;52.250;8.478;2022-12-07T11:08:58;8.20;;;2.53;;
12112;SDS011;6120;52.250;8.478;2022-12-07T11:17:53;7.28;;;2.00;;
12112;SDS011;6120;52.250;8.478;2022-12-07T11:28:41;4.65;;;1.45;;
12112;SDS011;6120;52.250;8.478;2022-12-07T11:33:57;6.20;;;1.90;;
12112;SDS011;6120;52.250;8.478;2022-12-07T11:36:40;6.57;;;1.70;;
12112;SDS011;6120;52.250;8.478;2022-12-07T11:41:45;7.93;;;2.15;;
12112;SDS011;6120;52.250;8.478;2022-12-07T11:47:14;7.55;;;1.73;;
12112;SDS011;6120;52.250;8.478;2022-12-07T11:52:28;5.93;;;1.33;;
12112;SDS011;6120;52.250;8.478;2022-12-07T11:55:17;5.63;;;1.33;;
12112;SDS011;6120;52.250;8.478;2022-12-07T11:57:49;5.53;;;1.27;;
12112;SDS011;6120;52.250;8.478;2022-12-07T12:00:18;3.38;;;1.20;;
12112;SDS011;6120;52.250;8.478;2022-12-07T12:05:42;4.40;;;1.02;;
12112;SDS011;6120;52.250;8.478;2022-12-07T12:08:13;7.30;;;1.20;;
12112;SDS011;6120;52.250;8.478;2022-12-07T12:11:25;6.22;;;1.65;;
12112;SDS011;6120;52.250;8.478;2022-12-07T12:14:17;3.78;;;1.00;;
12112;SDS011;6120;52.250;8.478;2022-12-07T12:17:17;4.05;;;0.95;;
12112;SDS011;6120;52.250;8.478;2022-12-07T12:23:09;7.43;;;1.10;;
12112;SDS011;6120;52.250;8.478;2022-12-07T12:25:24;4.57;;;1.40;;
12112;SDS011;6120;52.250;8.478;2022-12-07T12:27:53;5.65;;;1.20;;
12112;SDS011;6120;52.250;8.478;2022-12-07T12:30:26;8.57;;;1.60;;
12112;SDS011;6120;52.250;8.478;2022-12-07T12:33:01;9.05;;;1.27;;
12112;SDS011;6120;52.250;8.478;2022-12-07T12:35:36;8.20;;;1.40;;
12112;SDS011;6120;52.250;8.478;2022-12-07T12:41:00;10.02;;;1.90;;
12112;SDS011;6120;52.250;8.478;2022-12-07T12:43:47;11.82;;;2.45;;
12112;SDS011;6120;52.250;8.478;2022-12-07T12:48:56;5.68;;;1.50;;
12112;SDS011;6120;52.250;8.478;2022-12-07T12:51:44;7.57;;;2.08;;
12112;SDS011;6120;52.250;8.478;2022-12-07T12:54:22;7.95;;;2.08;;
12112;SDS011;6120;52.250;8.478;2022-12-07T12:59:38;10.05;;;2.25;;
12112;SDS011;6120;52.250;8.478;2022-12-07T13:02:21;6.38;;;1.55;;
12112;SDS011;6120;52.250;8.478;2022-12-07T13:05:00;10.25;;;2.25;;
12112;SDS011;6120;52.250;8.478;2022-12-07T13:23:38;5.20;;;1.30;;
12112;SDS011;6120;52.250;8.478;2022-12-07T13:34:49;7.50;;;1.75;;
12112;SDS011;6120;52.250;8.478;2022-12-07T13:40:20;8.52;;;2.17;;
12112;SDS011;6120;52.250;8.478;2022-12-07T13:42:48;10.95;;;2.40;;
12112;SDS011;6120;52.250;8.478;2022-12-07T13:45:29;7.63;;;2.13;;
12112;SDS011;6120;52.250;8.478;2022-12-07T13:48:36;13.68;;;2.55;;
12112;SDS011;6120;52.250;8.478;2022-12-07T13:51:16;7.85;;;2.22;;
12112;SDS011;6120;52.250;8.478;2022-12-07T13:53:47;9.90;;;2.08;;
12112;SDS011;6120;52.250;8.478;2022-12-07T13:56:40;5.32;;;1.70;;
12112;SDS011;6120;52.250;8.478;2022-12-07T13:59:13;9.68;;;2.25;;
12112;SDS011;6120;52.250;8.478;2022-12-07T14:01:41;5.47;;;1.80;;
12112;SDS011;6120;52.250;8.478;2022-12-07T14:04:27;7.32;;;1.75;;
12112;SDS011;6120;52.250;8.478;2022-12-07T14:06:57;10.50;;;1.60;;
12112;SDS011;6120;52.250;8.478;2022-12-07T14:09:25;10.27;;;2.25;;
12112;SDS011;6120;52.250;8.478;2022-12-07T14:11:53;6.68;;;1.55;;
12112;SDS011;6120;52.250;8.478;2022-12-07T14:14:25;14.07;;;1.50;;
12112;SDS011;6120;52.250;8.478;2022-12-07T14:17:08;6.68;;;1.77;;
12112;SDS011;6120;52.250;8.478;2022-12-07T14:22:22;9.45;;;2.03;;
12112;SDS011;6120;52.250;8.478;2022-12-07T14:24:59;8.57;;;2.10;;
12112;SDS011;6120;52.250;8.478;2022-12-07T14:27:30;5.25;;;1.65;;
12112;SDS011;6120;52.250;8.478;2022-12-07T14:30:03;5.93;;;1.67;;
12112;SDS011;6120;52.250;8.478;2022-12-07T14:32:31;7.75;;;1.73;;
12112;SDS011;6120;52.250;8.478;2022-12-07T14:37:29;14.13;;;2.00;;
12112;SDS011;6120;52.250;8.478;2022-12-07T14:39:56;8.18;;;1.70;;
12112;SDS011;6120;52.250;8.478;2022-12-07T14:42:24;10.80;;;1.55;;
12112;SDS011;6120;52.250;8.478;2022-12-07T14:44:53;7.25;;;1.55;;
12112;SDS011;6120;52.250;8.478;2022-12-07T14:47:19;5.97;;;1.67;;
12112;SDS011;6120;52.250;8.478;2022-12-07T14:50:06;7.40;;;1.80;;
12112;SDS011;6120;52.250;8.478;2022-12-07T14:52:35;5.70;;;1.63;;
12112;SDS011;6120;52.250;8.478;2022-12-07T14:55:25;8.32;;;1.70;;
12112;SDS011;6120;52.250;8.478;2022-12-07T14:57:53;5.32;;;1.30;;
12112;SDS011;6120;52.250;8.478;2022-12-07T15:00:21;5.68;;;1.55;;
12112;SDS011;6120;52.250;8.478;2022-12-07T15:02:49;7.97;;;2.10;;
12112;SDS011;6120;52.250;8.478;2022-12-07T15:05:17;7.13;;;1.93;;
12112;SDS011;6120;52.250;8.478;2022-12-07T15:07:45;8.63;;;1.58;;
12112;SDS011;6120;52.250;8.478;2022-12-07T15:10:22;5.28;;;2.17;;
12112;SDS011;6120;52.250;8.478;2022-12-07T15:12:56;7.22;;;2.30;;
12112;SDS011;6120;52.250;8.478;2022-12-07T15:15:43;5.13;;;1.87;;
12112;SDS011;6120;52.250;8.478;2022-12-07T15:18:10;8.65;;;1.58;;
12112;SDS011;6120;52.250;8.478;2022-12-07T15:20:37;8.77;;;2.35;;
12112;SDS011;6120;52.250;8.478;2022-12-07T15:23:03;6.75;;;1.35;;
12112;SDS011;6120;52.250;8.478;2022-12-07T15:25:30;3.35;;;1.33;;
12112;SDS011;6120;52.250;8.478;2022-12-07T15:27:56;4.72;;;1.30;;
12112;SDS011;6120;52.250;8.478;2022-12-07T15:30:23;10.60;;;1.52;;
12112;SDS011;6120;52.250;8.478;2022-12-07T15:32:53;3.10;;;1.33;;
12112;SDS011;6120;52.250;8.478;2022-12-07T15:35:19;5.65;;;1.75;;
12112;SDS011;6120;52.250;8.478;2022-12-07T15:37:46;7.00;;;1.60;;
12112;SDS011;6120;52.250;8.478;2022-12-07T15:40:13;6.30;;;1.40;;
12112;SDS011;6120;52.250;8.478;2022-12-07T15:42:40;4.30;;;1.77;;
12112;SDS011;6120;52.250;8.478;2022-12-07T15:45:07;7.85;;;1.90;;
12112;SDS011;6120;52.250;8.478;2022-12-07T15:47:36;6.30;;;1.60;;
12112;SDS011;6120;52.250;8.478;2022-12-07T15:50:24;10.73;;;3.00;;
12112;SDS011;6120;52.250;8.478;2022-12-07T15:52:50;10.65;;;4.63;;
12112;SDS011;6120;52.250;8.478;2022-12-07T15:55:17;10.52;;;3.67;;
12112;SDS011;6120;52.250;8.478;2022-12-07T15:57:44;7.53;;;3.22;;
12112;SDS011;6120;52.250;8.478;2022-12-07T16:00:10;13.68;;;2.50;;
12112;SDS011;6120;52.250;8.478;2022-12-07T16:02:37;8.30;;;2.03;;
12112;SDS011;6120;52.250;8.478;2022-12-07T16:05:05;7.57;;;2.20;;
12112;SDS011;6120;52.250;8.478;2022-12-07T16:07:32;7.22;;;2.00;;
12112;SDS011;6120;52.250;8.478;2022-12-07T16:09:59;5.35;;;2.00;;
12112;SDS011;6120;52.250;8.478;2022-12-07T16:12:25;5.53;;;1.75;;
12112;SDS011;6120;52.250;8.478;2022-12-07T16:14:52;5.60;;;1.70;;
12112;SDS011;6120;52.250;8.478;2022-12-07T16:17:18;4.38;;;1.70;;
12112;SDS011;6120;52.250;8.478;2022-12-07T16:19:45;4.10;;;1.60;;
12112;SDS011;6120;52.250;8.478;2022-12-07T16:22:12;6.97;;;1.58;;
12112;SDS011;6120;52.250;8.478;2022-12-07T16:24:38;3.88;;;1.48;;
12112;SDS011;6120;52.250;8.478;2022-12-07T16:27:05;3.20;;;1.40;;
12112;SDS011;6120;52.250;8.478;2022-12-07T16:29:31;5.53;;;1.40;;
12112;SDS011;6120;52.250;8.478;2022-12-07T16:31:58;4.00;;;1.50;;
12112;SDS011;6120;52.250;8.478;2022-12-07T16:34:25;3.05;;;1.20;;
12112;SDS011;6120;52.250;8.478;2022-12-07T16:36:51;5.70;;;1.58;;
12112;SDS011;6120;52.250;8.478;2022-12-07T16:39:33;4.38;;;2.38;;
12112;SDS011;6120;52.250;8.478;2022-12-07T16:42:00;4.55;;;1.60;;
12112;SDS011;6120;52.250;8.478;2022-12-07T16:44:27;4.10;;;1.80;;
12112;SDS011;6120;52.250;8.478;2022-12-07T16:46:54;4.07;;;1.92;;
12112;SDS011;6120;52.250;8.478;2022-12-07T16:49:21;4.43;;;1.80;;
12112;SDS011;6120;52.250;8.478;2022-12-07T16:51:50;3.55;;;1.50;;
12112;SDS011;6120;52.250;8.478;2022-12-07T16:54:37;3.03;;;1.30;;
12112;SDS011;6120;52.250;8.478;2022-12-07T16:57:04;4.68;;;1.30;;
12112;SDS011;6120;52.250;8.478;2022-12-07T16:59:30;3.40;;;1.58;;
12112;SDS011;6120;52.250;8.478;2022-12-07T17:01:57;2.35;;;1.40;;
12112;SDS011;6120;52.250;8.478;2022-12-07T17:04:24;3.53;;;1.20;;
12112;SDS011;6120;52.250;8.478;2022-12-07T17:06:51;4.63;;;1.42;;
12112;SDS011;6120;52.250;8.478;2022-12-07T17:09:17;3.95;;;1.40;;
12112;SDS011;6120;52.250;8.478;2022-12-07T17:11:47;4.10;;;1.20;;
12112;SDS011;6120;52.250;8.478;2022-12-07T17:14:13;5.55;;;1.90;;
12112;SDS011;6120;52.250;8.478;2022-12-07T17:16:58;4.90;;;1.90;;